< < Back
Terminal Aerodrome Forecast


Current Version              Previous Versions:   1  2  3  4  5  6  7  8  9  

Terminal Aerodrome Forecast

503
FTUS44 KMOB 312320
TAFMOB
TAF
KMOB 312320Z 0100/0124 20006KT P6SM FEW060 SCT200
     FM011800 20005KT P6SM SCT050 SCT250=

Latest METAR

879
SAUS80 KWBC 010800 RRH
MTRMOB
METAR KMOB 010756Z AUTO 31003KT 10SM CLR 22/21 A3005 RMK AO2 SLP173
T02170211


USA.gov is the U.S. government's official web portal to all federal, state and local government web resources and services.